sensor_id;sensor_type;location;lat;lon;timestamp;P1;durP1;ratioP1;P2;durP2;ratioP2
64157;SDS011;50449;51.528;5.076;2023-07-13T00:00:01;91.32;;;87.00;;
64157;SDS011;50449;51.528;5.076;2023-07-13T00:02:29;91.88;;;87.50;;
64157;SDS011;50449;51.528;5.076;2023-07-13T00:04:55;91.55;;;87.20;;
64157;SDS011;50449;51.528;5.076;2023-07-13T00:07:20;92.78;;;88.35;;
64157;SDS011;50449;51.528;5.076;2023-07-13T00:09:46;90.05;;;85.88;;
64157;SDS011;50449;51.528;5.076;2023-07-13T00:12:31;89.88;;;85.88;;
64157;SDS011;50449;51.528;5.076;2023-07-13T00:14:59;91.07;;;86.88;;
64157;SDS011;50449;51.528;5.076;2023-07-13T00:17:26;93.35;;;89.15;;
64157;SDS011;50449;51.528;5.076;2023-07-13T00:19:52;91.07;;;86.97;;
64157;SDS011;50449;51.528;5.076;2023-07-13T00:22:18;93.50;;;89.25;;
64157;SDS011;50449;51.528;5.076;2023-07-13T00:24:44;87.95;;;84.05;;
64157;SDS011;50449;51.528;5.076;2023-07-13T00:27:11;90.70;;;86.68;;
64157;SDS011;50449;51.528;5.076;2023-07-13T00:29:36;89.47;;;85.40;;
64157;SDS011;50449;51.528;5.076;2023-07-13T00:32:06;90.22;;;85.70;;
64157;SDS011;50449;51.528;5.076;2023-07-13T00:34:32;89.20;;;85.05;;
64157;SDS011;50449;51.528;5.076;2023-07-13T00:36:57;92.53;;;88.13;;
64157;SDS011;50449;51.528;5.076;2023-07-13T00:39:23;89.35;;;85.35;;
64157;SDS011;50449;51.528;5.076;2023-07-13T00:41:49;92.75;;;88.38;;
64157;SDS011;50449;51.528;5.076;2023-07-13T00:44:15;90.13;;;85.93;;
64157;SDS011;50449;51.528;5.076;2023-07-13T00:46:41;90.93;;;86.82;;
64157;SDS011;50449;51.528;5.076;2023-07-13T00:49:07;91.80;;;87.38;;
64157;SDS011;50449;51.528;5.076;2023-07-13T00:51:39;90.57;;;86.28;;
64157;SDS011;50449;51.528;5.076;2023-07-13T00:54:09;90.05;;;86.10;;
64157;SDS011;50449;51.528;5.076;2023-07-13T00:56:36;92.05;;;87.85;;
64157;SDS011;50449;51.528;5.076;2023-07-13T00:59:02;90.00;;;86.03;;
64157;SDS011;50449;51.528;5.076;2023-07-13T01:01:31;89.57;;;85.45;;
64157;SDS011;50449;51.528;5.076;2023-07-13T01:03:57;87.90;;;83.97;;
64157;SDS011;50449;51.528;5.076;2023-07-13T01:06:22;87.57;;;83.45;;
64157;SDS011;50449;51.528;5.076;2023-07-13T01:08:48;89.30;;;85.32;;
64157;SDS011;50449;51.528;5.076;2023-07-13T01:11:13;87.60;;;83.65;;
64157;SDS011;50449;51.528;5.076;2023-07-13T01:13:44;89.60;;;85.50;;
64157;SDS011;50449;51.528;5.076;2023-07-13T01:16:25;90.35;;;85.93;;
64157;SDS011;50449;51.528;5.076;2023-07-13T01:18:53;88.10;;;83.80;;
64157;SDS011;50449;51.528;5.076;2023-07-13T01:21:23;90.90;;;86.60;;
64157;SDS011;50449;51.528;5.076;2023-07-13T01:23:48;91.53;;;87.32;;
64157;SDS011;50449;51.528;5.076;2023-07-13T01:26:13;88.18;;;84.05;;
64157;SDS011;50449;51.528;5.076;2023-07-13T01:28:39;89.15;;;85.10;;
64157;SDS011;50449;51.528;5.076;2023-07-13T01:31:04;88.70;;;84.60;;
64157;SDS011;50449;51.528;5.076;2023-07-13T01:33:30;89.57;;;85.47;;
64157;SDS011;50449;51.528;5.076;2023-07-13T01:35:55;86.47;;;82.45;;
64157;SDS011;50449;51.528;5.076;2023-07-13T01:38:22;89.78;;;85.78;;
64157;SDS011;50449;51.528;5.076;2023-07-13T01:40:49;92.53;;;87.57;;
64157;SDS011;50449;51.528;5.076;2023-07-13T01:43:16;87.47;;;83.57;;
64157;SDS011;50449;51.528;5.076;2023-07-13T01:45:41;89.10;;;85.00;;
64157;SDS011;50449;51.528;5.076;2023-07-13T01:48:08;87.53;;;83.22;;
64157;SDS011;50449;51.528;5.076;2023-07-13T01:50:34;90.40;;;85.97;;
64157;SDS011;50449;51.528;5.076;2023-07-13T01:52:59;86.10;;;82.03;;
64157;SDS011;50449;51.528;5.076;2023-07-13T01:55:25;87.25;;;82.93;;
64157;SDS011;50449;51.528;5.076;2023-07-13T01:57:50;88.00;;;83.82;;
64157;SDS011;50449;51.528;5.076;2023-07-13T02:00:16;87.53;;;83.57;;
64157;SDS011;50449;51.528;5.076;2023-07-13T02:02:42;89.28;;;84.88;;
64157;SDS011;50449;51.528;5.076;2023-07-13T02:05:07;85.75;;;81.50;;
64157;SDS011;50449;51.528;5.076;2023-07-13T02:07:33;85.97;;;82.10;;
64157;SDS011;50449;51.528;5.076;2023-07-13T02:09:58;87.00;;;82.90;;
64157;SDS011;50449;51.528;5.076;2023-07-13T02:12:24;85.38;;;81.47;;
64157;SDS011;50449;51.528;5.076;2023-07-13T02:14:49;84.72;;;80.95;;
64157;SDS011;50449;51.528;5.076;2023-07-13T02:17:15;84.35;;;80.43;;
64157;SDS011;50449;51.528;5.076;2023-07-13T02:19:41;87.82;;;83.13;;
64157;SDS011;50449;51.528;5.076;2023-07-13T02:22:07;88.72;;;84.45;;
64157;SDS011;50449;51.528;5.076;2023-07-13T02:24:32;85.85;;;81.65;;
64157;SDS011;50449;51.528;5.076;2023-07-13T02:26:58;85.90;;;82.00;;
64157;SDS011;50449;51.528;5.076;2023-07-13T02:29:23;84.97;;;81.15;;
64157;SDS011;50449;51.528;5.076;2023-07-13T02:31:49;85.07;;;81.07;;
64157;SDS011;50449;51.528;5.076;2023-07-13T02:34:14;83.88;;;80.05;;
64157;SDS011;50449;51.528;5.076;2023-07-13T02:36:39;81.25;;;77.47;;
64157;SDS011;50449;51.528;5.076;2023-07-13T02:39:05;85.82;;;81.38;;
64157;SDS011;50449;51.528;5.076;2023-07-13T02:41:31;85.75;;;81.75;;
64157;SDS011;50449;51.528;5.076;2023-07-13T02:44:00;87.80;;;83.75;;
64157;SDS011;50449;51.528;5.076;2023-07-13T02:46:31;84.63;;;80.45;;
64157;SDS011;50449;51.528;5.076;2023-07-13T02:48:57;83.30;;;79.60;;
64157;SDS011;50449;51.528;5.076;2023-07-13T02:51:23;84.68;;;80.57;;
64157;SDS011;50449;51.528;5.076;2023-07-13T02:53:48;84.05;;;79.85;;
64157;SDS011;50449;51.528;5.076;2023-07-13T02:56:14;81.95;;;77.82;;
64157;SDS011;50449;51.528;5.076;2023-07-13T02:58:39;85.55;;;81.55;;
64157;SDS011;50449;51.528;5.076;2023-07-13T03:01:08;82.65;;;78.95;;
64157;SDS011;50449;51.528;5.076;2023-07-13T03:03:35;83.75;;;79.72;;
64157;SDS011;50449;51.528;5.076;2023-07-13T03:06:01;85.00;;;81.10;;
64157;SDS011;50449;51.528;5.076;2023-07-13T03:08:28;82.60;;;78.60;;
64157;SDS011;50449;51.528;5.076;2023-07-13T03:11:04;82.35;;;78.13;;
64157;SDS011;50449;51.528;5.076;2023-07-13T03:13:32;82.85;;;78.72;;
64157;SDS011;50449;51.528;5.076;2023-07-13T03:15:57;82.15;;;78.10;;
64157;SDS011;50449;51.528;5.076;2023-07-13T03:18:23;81.70;;;77.90;;
64157;SDS011;50449;51.528;5.076;2023-07-13T03:20:51;81.03;;;77.20;;
64157;SDS011;50449;51.528;5.076;2023-07-13T03:23:17;82.72;;;78.63;;
64157;SDS011;50449;51.528;5.076;2023-07-13T03:25:43;85.82;;;81.82;;
64157;SDS011;50449;51.528;5.076;2023-07-13T03:28:10;81.97;;;77.45;;
64157;SDS011;50449;51.528;5.076;2023-07-13T03:30:36;82.38;;;78.25;;
64157;SDS011;50449;51.528;5.076;2023-07-13T03:33:02;81.95;;;77.53;;
64157;SDS011;50449;51.528;5.076;2023-07-13T03:35:28;86.07;;;81.10;;
64157;SDS011;50449;51.528;5.076;2023-07-13T03:37:53;84.25;;;80.15;;
64157;SDS011;50449;51.528;5.076;2023-07-13T03:40:19;82.95;;;78.85;;
64157;SDS011;50449;51.528;5.076;2023-07-13T03:42:45;80.07;;;75.93;;
64157;SDS011;50449;51.528;5.076;2023-07-13T03:45:11;77.53;;;73.63;;
64157;SDS011;50449;51.528;5.076;2023-07-13T03:47:37;83.07;;;79.05;;
64157;SDS011;50449;51.528;5.076;2023-07-13T03:50:02;78.10;;;74.05;;
64157;SDS011;50449;51.528;5.076;2023-07-13T03:52:28;80.72;;;76.63;;
64157;SDS011;50449;51.528;5.076;2023-07-13T03:54:54;78.40;;;74.38;;
64157;SDS011;50449;51.528;5.076;2023-07-13T03:57:19;81.38;;;76.88;;
64157;SDS011;50449;51.528;5.076;2023-07-13T03:59:44;78.45;;;74.60;;
64157;SDS011;50449;51.528;5.076;2023-07-13T04:02:10;79.38;;;75.38;;
64157;SDS011;50449;51.528;5.076;2023-07-13T04:04:35;79.55;;;75.18;;
64157;SDS011;50449;51.528;5.076;2023-07-13T04:07:01;78.50;;;74.90;;
64157;SDS011;50449;51.528;5.076;2023-07-13T04:09:26;76.72;;;72.90;;
64157;SDS011;50449;51.528;5.076;2023-07-13T04:11:52;79.13;;;75.32;;
64157;SDS011;50449;51.528;5.076;2023-07-13T04:14:17;82.25;;;78.45;;
64157;SDS011;50449;51.528;5.076;2023-07-13T04:16:43;80.55;;;76.40;;
64157;SDS011;50449;51.528;5.076;2023-07-13T04:19:09;80.03;;;75.75;;
64157;SDS011;50449;51.528;5.076;2023-07-13T04:21:35;74.35;;;70.75;;
64157;SDS011;50449;51.528;5.076;2023-07-13T04:24:01;76.47;;;73.00;;
64157;SDS011;50449;51.528;5.076;2023-07-13T04:26:28;76.63;;;72.65;;
64157;SDS011;50449;51.528;5.076;2023-07-13T04:28:53;78.25;;;74.55;;
64157;SDS011;50449;51.528;5.076;2023-07-13T04:31:19;76.90;;;73.13;;
64157;SDS011;50449;51.528;5.076;2023-07-13T04:33:45;78.38;;;74.32;;
64157;SDS011;50449;51.528;5.076;2023-07-13T04:36:10;78.68;;;74.03;;
64157;SDS011;50449;51.528;5.076;2023-07-13T04:38:36;79.75;;;75.35;;
64157;SDS011;50449;51.528;5.076;2023-07-13T04:41:03;77.53;;;73.78;;
64157;SDS011;50449;51.528;5.076;2023-07-13T04:43:31;79.25;;;75.35;;
64157;SDS011;50449;51.528;5.076;2023-07-13T04:46:02;80.35;;;76.45;;
64157;SDS011;50449;51.528;5.076;2023-07-13T04:48:32;78.45;;;74.30;;
64157;SDS011;50449;51.528;5.076;2023-07-13T04:50:58;79.75;;;75.70;;
64157;SDS011;50449;51.528;5.076;2023-07-13T04:53:24;76.20;;;72.18;;
64157;SDS011;50449;51.528;5.076;2023-07-13T04:55:50;79.18;;;75.47;;
64157;SDS011;50449;51.528;5.076;2023-07-13T04:58:15;79.53;;;75.13;;
64157;SDS011;50449;51.528;5.076;2023-07-13T05:00:40;80.95;;;76.70;;
64157;SDS011;50449;51.528;5.076;2023-07-13T05:03:06;76.85;;;72.85;;
64157;SDS011;50449;51.528;5.076;2023-07-13T05:05:31;73.90;;;70.50;;
64157;SDS011;50449;51.528;5.076;2023-07-13T05:07:57;79.32;;;75.38;;
64157;SDS011;50449;51.528;5.076;2023-07-13T05:10:22;78.75;;;74.07;;
64157;SDS011;50449;51.528;5.076;2023-07-13T05:12:48;80.28;;;76.25;;
64157;SDS011;50449;51.528;5.076;2023-07-13T05:15:14;80.25;;;76.25;;
64157;SDS011;50449;51.528;5.076;2023-07-13T05:17:40;79.68;;;74.85;;
64157;SDS011;50449;51.528;5.076;2023-07-13T05:20:06;82.88;;;78.32;;
64157;SDS011;50449;51.528;5.076;2023-07-13T05:22:33;76.10;;;72.47;;
64157;SDS011;50449;51.528;5.076;2023-07-13T05:25:00;78.90;;;74.60;;
64157;SDS011;50449;51.528;5.076;2023-07-13T05:27:32;77.95;;;73.88;;
64157;SDS011;50449;51.528;5.076;2023-07-13T05:29:58;80.00;;;76.10;;
64157;SDS011;50449;51.528;5.076;2023-07-13T05:32:23;77.95;;;74.00;;
64157;SDS011;50449;51.528;5.076;2023-07-13T05:34:49;78.13;;;73.38;;
64157;SDS011;50449;51.528;5.076;2023-07-13T05:37:14;81.75;;;77.40;;
64157;SDS011;50449;51.528;5.076;2023-07-13T05:39:39;79.63;;;75.13;;
64157;SDS011;50449;51.528;5.076;2023-07-13T05:42:05;78.13;;;74.00;;
64157;SDS011;50449;51.528;5.076;2023-07-13T05:44:31;79.78;;;75.15;;
64157;SDS011;50449;51.528;5.076;2023-07-13T05:46:56;78.18;;;73.82;;
64157;SDS011;50449;51.528;5.076;2023-07-13T05:49:22;78.88;;;73.90;;
64157;SDS011;50449;51.528;5.076;2023-07-13T05:51:48;79.47;;;74.88;;
64157;SDS011;50449;51.528;5.076;2023-07-13T05:54:13;79.88;;;75.40;;
64157;SDS011;50449;51.528;5.076;2023-07-13T05:56:38;75.47;;;71.72;;
64157;SDS011;50449;51.528;5.076;2023-07-13T05:59:04;79.40;;;74.15;;
64157;SDS011;50449;51.528;5.076;2023-07-13T06:01:29;76.55;;;72.20;;
64157;SDS011;50449;51.528;5.076;2023-07-13T06:03:56;78.97;;;74.22;;
64157;SDS011;50449;51.528;5.076;2023-07-13T06:06:21;81.13;;;76.32;;
64157;SDS011;50449;51.528;5.076;2023-07-13T06:08:46;79.10;;;74.75;;
64157;SDS011;50449;51.528;5.076;2023-07-13T06:11:13;75.63;;;71.68;;
64157;SDS011;50449;51.528;5.076;2023-07-13T06:13:49;77.75;;;73.47;;
64157;SDS011;50449;51.528;5.076;2023-07-13T06:16:15;78.70;;;74.00;;
64157;SDS011;50449;51.528;5.076;2023-07-13T06:18:41;77.70;;;73.40;;
64157;SDS011;50449;51.528;5.076;2023-07-13T06:21:08;75.68;;;71.53;;
64157;SDS011;50449;51.528;5.076;2023-07-13T06:23:35;73.53;;;69.33;;
64157;SDS011;50449;51.528;5.076;2023-07-13T06:26:00;79.20;;;73.63;;
64157;SDS011;50449;51.528;5.076;2023-07-13T06:28:26;77.60;;;72.85;;
64157;SDS011;50449;51.528;5.076;2023-07-13T06:30:53;74.60;;;70.75;;
64157;SDS011;50449;51.528;5.076;2023-07-13T06:33:18;81.50;;;77.05;;
64157;SDS011;50449;51.528;5.076;2023-07-13T06:35:44;80.25;;;75.38;;
64157;SDS011;50449;51.528;5.076;2023-07-13T06:38:09;82.00;;;77.07;;
64157;SDS011;50449;51.528;5.076;2023-07-13T06:40:34;77.00;;;72.90;;
64157;SDS011;50449;51.528;5.076;2023-07-13T06:43:00;80.18;;;75.43;;
64157;SDS011;50449;51.528;5.076;2023-07-13T06:45:25;78.20;;;73.88;;
64157;SDS011;50449;51.528;5.076;2023-07-13T06:47:51;77.30;;;73.10;;
64157;SDS011;50449;51.528;5.076;2023-07-13T06:50:16;80.82;;;75.75;;
64157;SDS011;50449;51.528;5.076;2023-07-13T06:52:41;77.85;;;73.63;;
64157;SDS011;50449;51.528;5.076;2023-07-13T06:55:07;80.65;;;76.13;;
64157;SDS011;50449;51.528;5.076;2023-07-13T06:57:33;77.47;;;73.40;;
64157;SDS011;50449;51.528;5.076;2023-07-13T06:59:58;75.70;;;71.68;;
64157;SDS011;50449;51.528;5.076;2023-07-13T07:02:24;76.35;;;71.88;;
64157;SDS011;50449;51.528;5.076;2023-07-13T07:04:49;78.65;;;73.93;;
64157;SDS011;50449;51.528;5.076;2023-07-13T07:07:15;81.13;;;76.60;;
64157;SDS011;50449;51.528;5.076;2023-07-13T07:09:40;75.97;;;72.07;;
64157;SDS011;50449;51.528;5.076;2023-07-13T07:12:06;80.80;;;75.63;;
64157;SDS011;50449;51.528;5.076;2023-07-13T07:14:32;79.80;;;74.93;;
64157;SDS011;50449;51.528;5.076;2023-07-13T07:16:59;76.65;;;72.60;;
64157;SDS011;50449;51.528;5.076;2023-07-13T07:19:24;75.72;;;71.72;;
64157;SDS011;50449;51.528;5.076;2023-07-13T07:21:50;77.20;;;72.82;;
64157;SDS011;50449;51.528;5.076;2023-07-13T07:24:15;76.30;;;71.63;;
64157;SDS011;50449;51.528;5.076;2023-07-13T07:26:41;78.57;;;73.80;;
64157;SDS011;50449;51.528;5.076;2023-07-13T07:29:06;80.20;;;74.82;;
64157;SDS011;50449;51.528;5.076;2023-07-13T07:31:31;75.60;;;70.97;;
64157;SDS011;50449;51.528;5.076;2023-07-13T07:33:57;78.65;;;74.47;;
64157;SDS011;50449;51.528;5.076;2023-07-13T07:36:22;76.88;;;72.43;;
64157;SDS011;50449;51.528;5.076;2023-07-13T07:38:48;78.07;;;73.47;;
64157;SDS011;50449;51.528;5.076;2023-07-13T07:41:13;82.78;;;78.60;;
64157;SDS011;50449;51.528;5.076;2023-07-13T07:43:39;79.90;;;75.60;;
64157;SDS011;50449;51.528;5.076;2023-07-13T07:46:04;81.82;;;77.22;;
64157;SDS011;50449;51.528;5.076;2023-07-13T07:48:30;77.38;;;73.28;;
64157;SDS011;50449;51.528;5.076;2023-07-13T07:50:56;81.53;;;77.13;;
64157;SDS011;50449;51.528;5.076;2023-07-13T07:53:21;80.70;;;76.57;;
64157;SDS011;50449;51.528;5.076;2023-07-13T07:55:47;79.38;;;75.35;;
64157;SDS011;50449;51.528;5.076;2023-07-13T07:58:13;82.75;;;77.72;;
64157;SDS011;50449;51.528;5.076;2023-07-13T08:00:39;76.53;;;72.63;;
64157;SDS011;50449;51.528;5.076;2023-07-13T08:03:05;82.35;;;77.93;;
64157;SDS011;50449;51.528;5.076;2023-07-13T08:05:30;79.72;;;75.00;;
64157;SDS011;50449;51.528;5.076;2023-07-13T08:07:56;77.03;;;73.05;;
64157;SDS011;50449;51.528;5.076;2023-07-13T08:10:21;83.25;;;78.85;;
64157;SDS011;50449;51.528;5.076;2023-07-13T08:12:47;77.82;;;73.70;;
64157;SDS011;50449;51.528;5.076;2023-07-13T08:15:13;80.55;;;76.60;;
64157;SDS011;50449;51.528;5.076;2023-07-13T08:17:40;81.53;;;77.32;;
64157;SDS011;50449;51.528;5.076;2023-07-13T08:20:06;83.32;;;78.47;;
64157;SDS011;50449;51.528;5.076;2023-07-13T08:22:34;83.07;;;78.87;;
64157;SDS011;50449;51.528;5.076;2023-07-13T08:24:59;81.22;;;77.18;;
64157;SDS011;50449;51.528;5.076;2023-07-13T08:27:25;83.43;;;78.82;;
64157;SDS011;50449;51.528;5.076;2023-07-13T08:29:52;80.38;;;76.10;;
64157;SDS011;50449;51.528;5.076;2023-07-13T08:32:19;83.68;;;79.38;;
64157;SDS011;50449;51.528;5.076;2023-07-13T08:34:45;83.32;;;78.22;;
64157;SDS011;50449;51.528;5.076;2023-07-13T08:37:11;85.15;;;79.55;;
64157;SDS011;50449;51.528;5.076;2023-07-13T08:39:37;83.72;;;78.63;;
64157;SDS011;50449;51.528;5.076;2023-07-13T08:42:07;83.43;;;78.43;;
64157;SDS011;50449;51.528;5.076;2023-07-13T08:44:49;80.85;;;76.55;;
64157;SDS011;50449;51.528;5.076;2023-07-13T08:47:37;80.35;;;76.55;;
64157;SDS011;50449;51.528;5.076;2023-07-13T08:50:10;82.43;;;78.53;;
64157;SDS011;50449;51.528;5.076;2023-07-13T08:52:39;85.55;;;80.82;;
64157;SDS011;50449;51.528;5.076;2023-07-13T08:55:14;81.25;;;77.45;;
64157;SDS011;50449;51.528;5.076;2023-07-13T08:57:44;81.35;;;77.35;;
64157;SDS011;50449;51.528;5.076;2023-07-13T09:00:17;85.38;;;80.50;;
64157;SDS011;50449;51.528;5.076;2023-07-13T09:05:14;83.53;;;79.53;;
64157;SDS011;50449;51.528;5.076;2023-07-13T09:08:00;87.47;;;82.95;;
64157;SDS011;50449;51.528;5.076;2023-07-13T09:13:43;82.45;;;78.28;;
64157;SDS011;50449;51.528;5.076;2023-07-13T09:16:13;86.00;;;81.65;;
64157;SDS011;50449;51.528;5.076;2023-07-13T09:18:41;86.28;;;81.57;;
64157;SDS011;50449;51.528;5.076;2023-07-13T09:21:10;88.50;;;84.07;;
64157;SDS011;50449;51.528;5.076;2023-07-13T09:23:39;88.32;;;83.88;;
64157;SDS011;50449;51.528;5.076;2023-07-13T09:26:12;84.57;;;80.28;;
64157;SDS011;50449;51.528;5.076;2023-07-13T09:28:47;86.30;;;81.80;;
64157;SDS011;50449;51.528;5.076;2023-07-13T09:31:30;87.50;;;82.75;;
64157;SDS011;50449;51.528;5.076;2023-07-13T09:33:59;86.30;;;81.55;;
64157;SDS011;50449;51.528;5.076;2023-07-13T09:36:26;85.88;;;81.50;;
64157;SDS011;50449;51.528;5.076;2023-07-13T09:47:16;87.57;;;82.75;;
64157;SDS011;50449;51.528;5.076;2023-07-13T09:49:42;90.20;;;85.53;;
64157;SDS011;50449;51.528;5.076;2023-07-13T09:52:14;86.82;;;82.50;;
64157;SDS011;50449;51.528;5.076;2023-07-13T09:54:43;89.60;;;85.13;;
64157;SDS011;50449;51.528;5.076;2023-07-13T09:57:14;89.05;;;84.45;;
64157;SDS011;50449;51.528;5.076;2023-07-13T09:59:48;88.00;;;83.50;;
64157;SDS011;50449;51.528;5.076;2023-07-13T10:05:11;89.22;;;84.65;;
64157;SDS011;50449;51.528;5.076;2023-07-13T10:07:42;91.65;;;84.55;;
64157;SDS011;50449;51.528;5.076;2023-07-13T10:12:48;88.70;;;83.90;;
64157;SDS011;50449;51.528;5.076;2023-07-13T10:15:19;92.63;;;87.57;;
64157;SDS011;50449;51.528;5.076;2023-07-13T10:17:46;94.18;;;89.57;;
64157;SDS011;50449;51.528;5.076;2023-07-13T10:20:12;89.88;;;85.68;;
64157;SDS011;50449;51.528;5.076;2023-07-13T10:22:55;89.38;;;85.00;;
64157;SDS011;50449;51.528;5.076;2023-07-13T10:25:27;94.43;;;89.60;;
64157;SDS011;50449;51.528;5.076;2023-07-13T10:28:00;90.78;;;85.97;;
64157;SDS011;50449;51.528;5.076;2023-07-13T10:33:13;90.68;;;86.18;;
64157;SDS011;50449;51.528;5.076;2023-07-13T10:35:40;92.00;;;87.32;;
64157;SDS011;50449;51.528;5.076;2023-07-13T10:38:13;93.85;;;89.20;;
64157;SDS011;50449;51.528;5.076;2023-07-13T10:40:45;93.93;;;89.25;;
64157;SDS011;50449;51.528;5.076;2023-07-13T10:43:24;93.45;;;88.90;;
64157;SDS011;50449;51.528;5.076;2023-07-13T10:45:53;98.30;;;93.78;;
64157;SDS011;50449;51.528;5.076;2023-07-13T10:48:20;100.80;;;96.10;;
64157;SDS011;50449;51.528;5.076;2023-07-13T10:50:48;93.40;;;89.03;;
64157;SDS011;50449;51.528;5.076;2023-07-13T10:53:22;95.88;;;91.55;;
64157;SDS011;50449;51.528;5.076;2023-07-13T10:56:03;97.22;;;92.63;;
64157;SDS011;50449;51.528;5.076;2023-07-13T10:58:47;94.20;;;89.65;;
64157;SDS011;50449;51.528;5.076;2023-07-13T11:01:40;98.07;;;93.18;;
64157;SDS011;50449;51.528;5.076;2023-07-13T11:04:15;95.97;;;91.65;;
64157;SDS011;50449;51.528;5.076;2023-07-13T11:06:41;94.70;;;90.30;;
64157;SDS011;50449;51.528;5.076;2023-07-13T11:09:18;95.90;;;90.82;;
64157;SDS011;50449;51.528;5.076;2023-07-13T11:25:25;98.82;;;94.32;;
64157;SDS011;50449;51.528;5.076;2023-07-13T11:33:02;99.82;;;95.03;;
64157;SDS011;50449;51.528;5.076;2023-07-13T11:35:31;99.43;;;94.72;;
64157;SDS011;50449;51.528;5.076;2023-07-13T11:37:59;100.15;;;95.70;;
64157;SDS011;50449;51.528;5.076;2023-07-13T11:40:27;97.80;;;93.03;;
64157;SDS011;50449;51.528;5.076;2023-07-13T11:43:01;100.30;;;95.85;;
64157;SDS011;50449;51.528;5.076;2023-07-13T11:45:27;101.93;;;97.43;;
64157;SDS011;50449;51.528;5.076;2023-07-13T11:47:53;101.63;;;97.22;;
64157;SDS011;50449;51.528;5.076;2023-07-13T11:50:22;103.15;;;98.43;;
64157;SDS011;50449;51.528;5.076;2023-07-13T11:52:49;99.70;;;95.20;;
64157;SDS011;50449;51.528;5.076;2023-07-13T11:55:18;101.57;;;96.82;;
64157;SDS011;50449;51.528;5.076;2023-07-13T11:57:59;103.15;;;98.43;;
64157;SDS011;50449;51.528;5.076;2023-07-13T12:00:28;102.13;;;97.63;;
64157;SDS011;50449;51.528;5.076;2023-07-13T12:02:58;101.68;;;97.07;;
64157;SDS011;50449;51.528;5.076;2023-07-13T12:05:27;102.45;;;97.70;;
64157;SDS011;50449;51.528;5.076;2023-07-13T12:07:53;103.30;;;98.88;;
64157;SDS011;50449;51.528;5.076;2023-07-13T12:10:26;104.90;;;100.13;;
64157;SDS011;50449;51.528;5.076;2023-07-13T12:15:35;107.70;;;102.60;;
64157;SDS011;50449;51.528;5.076;2023-07-13T12:18:11;102.15;;;97.72;;
64157;SDS011;50449;51.528;5.076;2023-07-13T12:20:41;103.63;;;98.93;;
64157;SDS011;50449;51.528;5.076;2023-07-13T12:23:14;106.68;;;101.88;;
64157;SDS011;50449;51.528;5.076;2023-07-13T12:25:49;101.85;;;97.40;;
64157;SDS011;50449;51.528;5.076;2023-07-13T12:31:04;107.57;;;102.88;;
64157;SDS011;50449;51.528;5.076;2023-07-13T12:33:32;104.35;;;99.60;;
64157;SDS011;50449;51.528;5.076;2023-07-13T12:36:02;106.18;;;101.57;;
64157;SDS011;50449;51.528;5.076;2023-07-13T12:38:30;113.25;;;108.28;;
64157;SDS011;50449;51.528;5.076;2023-07-13T12:40:56;105.55;;;101.03;;
64157;SDS011;50449;51.528;5.076;2023-07-13T12:43:23;108.95;;;103.55;;
64157;SDS011;50449;51.528;5.076;2023-07-13T12:48:22;104.53;;;99.93;;
64157;SDS011;50449;51.528;5.076;2023-07-13T12:50:47;108.97;;;104.07;;
64157;SDS011;50449;51.528;5.076;2023-07-13T12:53:27;118.28;;;111.47;;
64157;SDS011;50449;51.528;5.076;2023-07-13T12:55:56;110.88;;;105.78;;
64157;SDS011;50449;51.528;5.076;2023-07-13T13:01:03;109.22;;;104.32;;
64157;SDS011;50449;51.528;5.076;2023-07-13T13:08:45;108.65;;;103.85;;
64157;SDS011;50449;51.528;5.076;2023-07-13T13:11:13;113.85;;;108.75;;
64157;SDS011;50449;51.528;5.076;2023-07-13T13:16:26;112.00;;;106.90;;
64157;SDS011;50449;51.528;5.076;2023-07-13T13:19:03;108.65;;;103.85;;
64157;SDS011;50449;51.528;5.076;2023-07-13T13:21:45;109.45;;;104.60;;
64157;SDS011;50449;51.528;5.076;2023-07-13T13:24:12;108.10;;;103.38;;
64157;SDS011;50449;51.528;5.076;2023-07-13T13:26:42;110.13;;;105.03;;
64157;SDS011;50449;51.528;5.076;2023-07-13T13:29:16;112.72;;;107.78;;
64157;SDS011;50449;51.528;5.076;2023-07-13T13:31:45;112.65;;;107.75;;
64157;SDS011;50449;51.528;5.076;2023-07-13T13:34:12;113.43;;;108.35;;
64157;SDS011;50449;51.528;5.076;2023-07-13T13:39:15;113.05;;;107.75;;
64157;SDS011;50449;51.528;5.076;2023-07-13T13:41:45;110.15;;;105.18;;
64157;SDS011;50449;51.528;5.076;2023-07-13T13:44:10;112.25;;;107.00;;
64157;SDS011;50449;51.528;5.076;2023-07-13T13:46:38;110.93;;;105.83;;
64157;SDS011;50449;51.528;5.076;2023-07-13T13:49:03;110.32;;;105.38;;
64157;SDS011;50449;51.528;5.076;2023-07-13T13:51:29;116.88;;;111.47;;
64157;SDS011;50449;51.528;5.076;2023-07-13T13:53:55;110.38;;;105.53;;
64157;SDS011;50449;51.528;5.076;2023-07-13T13:56:20;110.55;;;105.75;;
64157;SDS011;50449;51.528;5.076;2023-07-13T13:58:46;108.85;;;103.72;;
64157;SDS011;50449;51.528;5.076;2023-07-13T14:01:21;113.82;;;108.88;;
64157;SDS011;50449;51.528;5.076;2023-07-13T14:03:48;112.35;;;107.15;;
64157;SDS011;50449;51.528;5.076;2023-07-13T14:06:14;113.60;;;108.30;;
64157;SDS011;50449;51.528;5.076;2023-07-13T14:08:41;111.05;;;105.97;;
64157;SDS011;50449;51.528;5.076;2023-07-13T14:11:07;109.38;;;104.47;;
64157;SDS011;50449;51.528;5.076;2023-07-13T14:13:38;113.45;;;108.57;;
64157;SDS011;50449;51.528;5.076;2023-07-13T14:16:12;110.55;;;105.55;;
64157;SDS011;50449;51.528;5.076;2023-07-13T14:18:41;114.72;;;109.63;;
64157;SDS011;50449;51.528;5.076;2023-07-13T14:21:11;110.40;;;105.50;;
64157;SDS011;50449;51.528;5.076;2023-07-13T14:23:42;118.22;;;112.80;;
64157;SDS011;50449;51.528;5.076;2023-07-13T14:26:13;112.23;;;107.30;;
64157;SDS011;50449;51.528;5.076;2023-07-13T14:28:42;110.30;;;105.53;;
64157;SDS011;50449;51.528;5.076;2023-07-13T14:31:10;113.40;;;108.20;;
64157;SDS011;50449;51.528;5.076;2023-07-13T14:33:37;111.45;;;106.45;;
64157;SDS011;50449;51.528;5.076;2023-07-13T14:36:03;112.20;;;107.22;;
64157;SDS011;50449;51.528;5.076;2023-07-13T14:38:38;109.20;;;104.45;;
64157;SDS011;50449;51.528;5.076;2023-07-13T14:41:04;115.93;;;110.57;;
64157;SDS011;50449;51.528;5.076;2023-07-13T14:43:29;115.38;;;110.22;;
64157;SDS011;50449;51.528;5.076;2023-07-13T14:45:55;117.82;;;112.20;;
64157;SDS011;50449;51.528;5.076;2023-07-13T14:48:22;117.05;;;111.88;;
64157;SDS011;50449;51.528;5.076;2023-07-13T14:50:56;114.68;;;109.53;;
64157;SDS011;50449;51.528;5.076;2023-07-13T14:53:22;108.57;;;103.38;;
64157;SDS011;50449;51.528;5.076;2023-07-13T14:55:50;110.93;;;106.13;;
64157;SDS011;50449;51.528;5.076;2023-07-13T14:58:15;114.03;;;108.57;;
64157;SDS011;50449;51.528;5.076;2023-07-13T15:00:41;114.32;;;109.10;;
64157;SDS011;50449;51.528;5.076;2023-07-13T15:03:08;113.35;;;108.45;;
64157;SDS011;50449;51.528;5.076;2023-07-13T15:05:44;110.97;;;106.05;;
64157;SDS011;50449;51.528;5.076;2023-07-13T15:08:10;113.05;;;107.75;;
64157;SDS011;50449;51.528;5.076;2023-07-13T15:10:36;111.00;;;106.10;;
64157;SDS011;50449;51.528;5.076;2023-07-13T15:13:20;113.53;;;108.43;;
64157;SDS011;50449;51.528;5.076;2023-07-13T15:15:47;110.63;;;105.25;;
64157;SDS011;50449;51.528;5.076;2023-07-13T15:18:17;112.78;;;107.72;;
64157;SDS011;50449;51.528;5.076;2023-07-13T15:20:45;111.68;;;106.68;;